Time;durP1;ratioP1;P1;durP2;ratioP2;P2;SDS_P1;SDS_P2;PMS_P1;PMS_P2;Temp;Humidity;BMP_temperature;BMP_pressure;BME280_temperature;BME280_humidity;BME280_pressure;Samples;Min_cycle;Max_cycle;Signal;HPM_P1;HPM_P2
2023/02/06 00:01:07;;;;;;;;;;;;;;;-3.14;66.93;101018.13;4964682;28;19977;-66
2023/02/06 00:03:33;;;;;;;;;;;;;;;-3.14;67.02;101018.13;4963920;28;19930;-66
2023/02/06 00:06:00;;;;;;;;;;;;;;;-3.11;67.04;101019.69;4963078;28;19930;-66
2023/02/06 00:08:26;;;;;;;;;;;;;;;-3.13;66.86;101020.66;4963210;28;19934;-66
2023/02/06 00:10:52;;;;;;;;;;;;;;;-3.13;66.95;101015.31;4977363;28;20348;-67
2023/02/06 00:13:18;;;;;;;;;;;;;;;-3.12;66.91;101018.84;4963122;28;19930;-67
2023/02/06 00:15:43;;;;;;;;;;;;;;;-3.13;67.12;101023.34;4961980;28;20332;-67
2023/02/06 00:18:09;;;;;;;;;;;;;;;-3.16;66.91;101029.00;4962029;28;19961;-67
2023/02/06 00:20:35;;;;;;;;;;;;;;;-3.18;67.10;101025.66;4963791;28;20448;-68
2023/02/06 00:23:03;;;;;;;;;;;;;;;-3.19;67.15;101028.47;4963145;28;19934;-67
2023/02/06 00:25:28;;;;;;;;;;;;;;;-3.20;66.68;101024.97;4963486;28;19938;-66
2023/02/06 00:27:54;;;;;;;;;;;;;;;-3.20;66.48;101018.78;4963355;28;19934;-66
2023/02/06 00:30:20;;;;;;;;;;;;;;;-3.22;65.89;101024.25;4964020;28;19937;-66
2023/02/06 00:32:46;;;;;;;;;;;;;;;-3.31;65.40;101014.50;4962754;28;19965;-66
2023/02/06 00:35:11;;;;;;;;;;;;;;;-3.24;65.41;101020.06;4961582;28;19941;-66
2023/02/06 00:37:39;;;;;;;;;;;;;;;-3.24;65.45;101020.06;4961503;28;20437;-66
2023/02/06 00:40:07;;;;;;;;;;;;;;;-3.27;65.64;101021.22;4965885;28;19965;-67
2023/02/06 00:42:33;;;;;;;;;;;;;;;-3.26;65.36;101019.41;4961477;28;20692;-66
2023/02/06 00:44:59;;;;;;;;;;;;;;;-3.29;65.54;101026.72;4962342;28;19934;-67
2023/02/06 00:47:24;;;;;;;;;;;;;;;-3.28;65.37;101030.25;4960292;28;19930;-66
2023/02/06 00:49:50;;;;;;;;;;;;;;;-3.29;65.40;101033.91;4960987;28;20729;-66
2023/02/06 00:52:17;;;;;;;;;;;;;;;-3.28;65.49;101031.09;4958099;28;19930;-67
2023/02/06 00:54:44;;;;;;;;;;;;;;;-3.29;65.53;101033.91;4963932;28;19969;-66
2023/02/06 00:57:11;;;;;;;;;;;;;;;-3.30;65.33;101032.22;4963189;28;20446;-66
2023/02/06 00:59:39;;;;;;;;;;;;;;;-3.30;65.31;101034.91;4963532;28;19941;-67
2023/02/06 01:02:05;;;;;;;;;;;;;;;-3.28;65.21;101035.59;4964439;28;19930;-66
2023/02/06 01:04:30;;;;;;;;;;;;;;;-3.28;65.04;101028.41;4948364;28;20306;-68
2023/02/06 01:06:57;;;;;;;;;;;;;;;-3.26;65.38;101035.44;4964243;28;19977;-66
2023/02/06 01:09:23;;;;;;;;;;;;;;;-3.26;65.46;101024.75;4962357;28;19938;-67
2023/02/06 01:11:49;;;;;;;;;;;;;;;-3.29;65.03;101028.56;4962788;28;19937;-67
2023/02/06 01:14:16;;;;;;;;;;;;;;;-3.46;64.62;101004.34;4962780;28;20302;-66
2023/02/06 01:16:42;;;;;;;;;;;;;;;-3.34;64.64;101028.19;4961950;28;20401;-66
2023/02/06 01:19:08;;;;;;;;;;;;;;;-3.37;64.59;101028.47;4966885;28;19973;-66
2023/02/06 01:21:33;;;;;;;;;;;;;;;-3.41;64.29;101027.97;4961855;28;19930;-67
2023/02/06 01:23:59;;;;;;;;;;;;;;;-3.40;64.42;101026.09;4963218;28;20429;-67
2023/02/06 01:26:25;;;;;;;;;;;;;;;-3.37;64.26;101023.97;4964729;28;19938;-67
2023/02/06 01:28:52;;;;;;;;;;;;;;;-3.37;64.25;101028.47;4965339;28;20318;-67
2023/02/06 01:31:22;;;;;;;;;;;;;;;-3.39;64.11;101031.31;4976516;28;19934;-66
2023/02/06 01:33:49;;;;;;;;;;;;;;;-3.40;63.94;101032.31;4961624;28;19930;-66
2023/02/06 01:36:15;;;;;;;;;;;;;;;-3.44;63.97;101030.91;4960883;28;19973;-66
2023/02/06 01:38:40;;;;;;;;;;;;;;;-3.50;64.10;101028.84;4961778;28;19970;-66
2023/02/06 01:41:07;;;;;;;;;;;;;;;-3.55;64.37;101031.97;4962244;28;20028;-66
2023/02/06 01:43:35;;;;;;;;;;;;;;;-3.52;64.68;101034.34;4960114;28;19970;-67
2023/02/06 01:46:00;;;;;;;;;;;;;;;-3.53;64.92;101037.19;4963887;28;20158;-66
2023/02/06 01:48:30;;;;;;;;;;;;;;;-3.53;65.00;101037.19;4962000;28;20029;-66
2023/02/06 01:50:57;;;;;;;;;;;;;;;-3.49;65.37;101035.88;4961654;28;20447;-67
2023/02/06 01:53:23;;;;;;;;;;;;;;;-3.50;65.29;101037.75;4980743;28;20416;-66
2023/02/06 01:55:50;;;;;;;;;;;;;;;-3.50;65.43;101037.75;4965601;28;20366;-67
2023/02/06 01:58:19;;;;;;;;;;;;;;;-3.48;65.61;101035.75;4965239;28;19961;-66
2023/02/06 02:00:46;;;;;;;;;;;;;;;-3.47;65.76;101034.75;4966132;28;19930;-67
2023/02/06 02:03:12;;;;;;;;;;;;;;;-3.45;65.73;101037.25;4966243;28;20428;-66
2023/02/06 02:05:42;;;;;;;;;;;;;;;-3.46;65.77;101027.56;4965971;28;19981;-67
2023/02/06 02:08:11;;;;;;;;;;;;;;;-3.48;65.97;101030.41;4964089;28;19973;-66
2023/02/06 02:10:36;;;;;;;;;;;;;;;-3.50;65.70;101039.56;4981775;28;19930;-67
2023/02/06 02:13:02;;;;;;;;;;;;;;;-3.56;66.03;101039.19;4964376;28;19937;-66
2023/02/06 02:15:34;;;;;;;;;;;;;;;-3.56;66.10;101033.84;4963345;28;19930;-67
2023/02/06 02:18:04;;;;;;;;;;;;;;;-3.53;66.14;101040.69;4965013;28;20439;-66
2023/02/06 02:20:45;;;;;;;;;;;;;;;-3.50;65.73;101037.75;4967567;28;19934;-66
2023/02/06 02:23:18;;;;;;;;;;;;;;;-3.47;65.93;101044.59;4963642;28;20024;-66
2023/02/06 02:25:55;;;;;;;;;;;;;;;-3.49;65.75;101050.13;4965326;28;19937;-66
2023/02/06 02:28:37;;;;;;;;;;;;;;;-3.51;65.85;101048.56;4964092;28;20029;-67
2023/02/06 02:31:13;;;;;;;;;;;;;;;-3.52;65.90;101049.56;4963856;28;19936;-66
2023/02/06 02:33:59;;;;;;;;;;;;;;;-3.57;65.99;101055.38;4981193;28;19973;-66
2023/02/06 02:36:32;;;;;;;;;;;;;;;-3.56;66.01;101067.75;4964878;28;19937;-67
2023/02/06 02:39:05;;;;;;;;;;;;;;;-3.59;65.97;101065.38;4965065;28;20401;-67
2023/02/06 02:41:37;;;;;;;;;;;;;;;-3.63;65.96;101064.00;4966973;28;20361;-67
2023/02/06 02:44:06;;;;;;;;;;;;;;;-3.65;66.02;101063.31;4964047;28;19930;-67
2023/02/06 02:46:34;;;;;;;;;;;;;;;-3.68;66.03;101066.25;4964222;28;20040;-67
2023/02/06 02:49:03;;;;;;;;;;;;;;;-3.70;66.14;101064.59;4965109;28;20037;-67
2023/02/06 02:51:30;;;;;;;;;;;;;;;-3.67;66.30;101075.97;4964052;28;19930;-67
2023/02/06 02:53:57;;;;;;;;;;;;;;;-3.65;66.46;101069.47;4967197;28;19937;-67
2023/02/06 02:56:23;;;;;;;;;;;;;;;-3.64;66.20;101076.50;4963457;28;19930;-67
2023/02/06 02:58:52;;;;;;;;;;;;;;;-3.67;66.01;101075.97;4965166;28;19965;-67
2023/02/06 03:01:19;;;;;;;;;;;;;;;-3.68;66.24;101074.28;4962256;28;20538;-67
2023/02/06 03:03:47;;;;;;;;;;;;;;;-3.68;65.99;101072.47;4947068;28;19965;-67
2023/02/06 03:06:25;;;;;;;;;;;;;;;-3.69;66.20;101076.13;4963123;28;20021;-67
2023/02/06 03:08:57;;;;;;;;;;;;;;;-3.75;66.27;101074.03;4963820;28;19962;-67
2023/02/06 03:11:23;;;;;;;;;;;;;;;-3.74;66.33;101083.78;4963480;28;19936;-67
2023/02/06 03:13:52;;;;;;;;;;;;;;;-3.74;66.23;101084.59;4980545;28;20020;-68
2023/02/06 03:16:21;;;;;;;;;;;;;;;-3.78;66.18;101074.34;4964454;28;20038;-67
2023/02/06 03:18:50;;;;;;;;;;;;;;;-3.84;66.49;101073.09;4963527;28;20398;-67
2023/02/06 03:21:18;;;;;;;;;;;;;;;-3.82;66.58;101072.97;4962758;28;19994;-67
2023/02/06 03:23:46;;;;;;;;;;;;;;;-3.84;66.31;101062.41;4966190;28;19930;-67
2023/02/06 03:26:15;;;;;;;;;;;;;;;-3.88;66.46;101066.38;4961337;28;19969;-67
2023/02/06 03:28:42;;;;;;;;;;;;;;;-3.93;66.39;101074.00;4964288;28;19930;-67
2023/02/06 03:31:10;;;;;;;;;;;;;;;-4.00;66.84;101079.94;4963177;28;19930;-67
2023/02/06 03:33:38;;;;;;;;;;;;;;;-3.99;66.81;101078.09;4964942;28;19930;-67
2023/02/06 03:36:05;;;;;;;;;;;;;;;-4.03;66.74;101082.06;4962636;28;20012;-67
2023/02/06 03:38:31;;;;;;;;;;;;;;;-4.02;66.79;101081.91;4963016;28;19935;-67
2023/02/06 03:40:58;;;;;;;;;;;;;;;-3.97;66.70;101086.00;4963404;28;20054;-67
2023/02/06 03:43:27;;;;;;;;;;;;;;;-4.08;66.68;101078.97;4965556;28;20278;-68
2023/02/06 03:45:58;;;;;;;;;;;;;;;-4.14;66.98;101085.75;4966511;28;20735;-67
2023/02/06 03:48:27;;;;;;;;;;;;;;;-4.14;67.19;101080.41;4962365;28;20400;-67
2023/02/06 03:50:55;;;;;;;;;;;;;;;-4.10;67.05;101080.97;4965477;28;20811;-67
2023/02/06 03:53:22;;;;;;;;;;;;;;;-4.05;66.90;101084.88;4961267;28;20428;-67
2023/02/06 03:55:49;;;;;;;;;;;;;;;-4.03;66.95;101082.06;4965106;28;20037;-67
2023/02/06 03:58:15;;;;;;;;;;;;;;;-4.05;66.86;101082.22;4944935;28;19952;-67
2023/02/06 04:00:44;;;;;;;;;;;;;;;-4.12;66.77;101078.47;4962498;28;20373;-66
2023/02/06 04:03:11;;;;;;;;;;;;;;;-4.11;67.12;101085.47;4962229;28;20401;-66
2023/02/06 04:05:37;;;;;;;;;;;;;;;-4.14;67.32;101081.25;4962116;28;19937;-66
2023/02/06 04:08:03;;;;;;;;;;;;;;;-4.11;67.46;101085.47;4959763;28;19934;-66
2023/02/06 04:10:28;;;;;;;;;;;;;;;-4.11;67.46;101084.63;4963259;28;20451;-66
2023/02/06 04:12:54;;;;;;;;;;;;;;;-4.09;67.52;101080.81;4961399;28;19937;-67
2023/02/06 04:15:20;;;;;;;;;;;;;;;-4.10;67.50;101079.16;4966302;28;19934;-67
2023/02/06 04:17:47;;;;;;;;;;;;;;;-4.11;67.63;101082.81;4977371;28;19933;-66
2023/02/06 04:20:13;;;;;;;;;;;;;;;-4.08;67.55;101087.00;4963006;28;20787;-66
2023/02/06 04:22:39;;;;;;;;;;;;;;;-4.07;67.50;101089.53;4966026;28;20309;-66
2023/02/06 04:25:05;;;;;;;;;;;;;;;-4.05;67.48;101089.41;4961505;28;19930;-67
2023/02/06 04:27:31;;;;;;;;;;;;;;;-4.09;67.64;101086.16;4963353;28;19930;-67
2023/02/06 04:29:57;;;;;;;;;;;;;;;-4.07;67.75;101088.69;4965110;28;19937;-67
2023/02/06 04:32:23;;;;;;;;;;;;;;;-4.09;67.96;101090.66;4963488;28;20286;-67
2023/02/06 04:34:50;;;;;;;;;;;;;;;-4.13;67.75;101090.97;4960482;28;20285;-67
2023/02/06 04:37:16;;;;;;;;;;;;;;;-4.27;67.53;101092.28;4964615;28;19930;-67
2023/02/06 04:39:42;;;;;;;;;;;;;;;-4.27;67.72;101096.78;4962041;28;20024;-66
2023/02/06 04:42:07;;;;;;;;;;;;;;;-4.24;67.73;101106.34;4963634;28;19930;-66
2023/02/06 04:44:33;;;;;;;;;;;;;;;-4.21;67.82;101100.69;4965787;28;19948;-67
2023/02/06 04:46:59;;;;;;;;;;;;;;;-4.18;67.74;101108.41;4959582;28;19930;-66
2023/02/06 04:49:25;;;;;;;;;;;;;;;-4.18;67.88;101095.91;4965774;28;20305;-67
2023/02/06 04:51:52;;;;;;;;;;;;;;;-4.20;67.85;101100.56;4966174;28;19934;-67
2023/02/06 04:54:18;;;;;;;;;;;;;;;-4.18;67.83;101103.91;4961653;28;19930;-66
2023/02/06 04:56:45;;;;;;;;;;;;;;;-4.17;67.97;101107.41;4614979;28;10000454;-67
2023/02/06 04:59:10;;;;;;;;;;;;;;;-4.15;67.99;101098.28;4959903;28;19934;-66
2023/02/06 05:01:36;;;;;;;;;;;;;;;-4.17;67.91;101102.94;4960931;28;20173;-67
2023/02/06 05:04:02;;;;;;;;;;;;;;;-4.19;67.83;101104.91;4964493;28;19937;-67
2023/02/06 05:06:30;;;;;;;;;;;;;;;-4.18;67.67;101114.59;4963255;28;19981;-67
2023/02/06 05:08:57;;;;;;;;;;;;;;;-4.18;67.90;101109.28;4959031;28;19930;-66
2023/02/06 05:11:23;;;;;;;;;;;;;;;-4.17;67.75;101105.59;4957704;28;20059;-67
2023/02/06 05:13:49;;;;;;;;;;;;;;;-4.21;67.87;101100.69;4962808;28;20385;-67
2023/02/06 05:16:15;;;;;;;;;;;;;;;-4.27;68.33;101102.97;4961529;28;20032;-66
2023/02/06 05:18:46;;;;;;;;;;;;;;;-4.29;68.28;101101.41;4964696;28;19930;-67
2023/02/06 05:21:12;;;;;;;;;;;;;;;-4.31;68.44;101108.75;4964353;28;19934;-67
2023/02/06 05:23:38;;;;;;;;;;;;;;;-4.30;68.45;101108.56;4964043;28;19981;-67
2023/02/06 05:26:05;;;;;;;;;;;;;;;-4.26;68.27;101111.81;4983238;28;20424;-67
2023/02/06 05:28:34;;;;;;;;;;;;;;;-4.27;68.32;101112.78;4964474;28;20060;-66
2023/02/06 05:31:00;;;;;;;;;;;;;;;-4.23;68.20;101110.69;4960362;28;19930;-67
2023/02/06 05:33:25;;;;;;;;;;;;;;;-4.28;68.20;101098.63;4960824;28;20460;-67
2023/02/06 05:35:51;;;;;;;;;;;;;;;-4.27;68.35;101102.13;4954166;28;19934;-68
2023/02/06 05:38:17;;;;;;;;;;;;;;;-4.28;68.28;101103.97;4957101;28;20008;-67
2023/02/06 05:40:43;;;;;;;;;;;;;;;-4.23;68.25;101105.34;4954414;28;19969;-67
2023/02/06 05:43:10;;;;;;;;;;;;;;;-4.17;68.18;101110.09;4956241;28;19930;-67
2023/02/06 05:45:36;;;;;;;;;;;;;;;-4.17;67.85;101107.41;4954566;28;19930;-67
2023/02/06 05:48:02;;;;;;;;;;;;;;;-4.18;68.08;101100.41;4956955;28;20232;-66
2023/02/06 05:50:28;;;;;;;;;;;;;;;-4.24;68.08;101106.34;4968148;28;20463;-66
2023/02/06 05:52:53;;;;;;;;;;;;;;;-4.31;68.04;101104.22;4967900;28;20322;-67
2023/02/06 05:55:21;;;;;;;;;;;;;;;-4.28;67.76;101103.97;4966237;28;21354;-67
2023/02/06 05:57:47;;;;;;;;;;;;;;;-4.26;67.74;101111.81;4966073;28;20045;-68
2023/02/06 06:00:15;;;;;;;;;;;;;;;-4.24;68.08;101107.16;4964641;28;19988;-67
2023/02/06 06:02:42;;;;;;;;;;;;;;;-4.13;67.76;101109.66;4965684;28;20316;-67
2023/02/06 06:05:08;;;;;;;;;;;;;;;-4.11;67.63;101108.66;4966725;28;19930;-67
2023/02/06 06:07:33;;;;;;;;;;;;;;;-4.02;67.24;101118.50;4969775;28;19977;-66
2023/02/06 06:09:59;;;;;;;;;;;;;;;-3.94;67.19;101112.41;4966283;28;20012;-66
2023/02/06 06:12:25;;;;;;;;;;;;;;;-3.86;67.02;101113.34;4968511;28;19946;-67
2023/02/06 06:14:51;;;;;;;;;;;;;;;-3.87;66.72;101117.03;4966423;28;19938;-67
2023/02/06 06:17:18;;;;;;;;;;;;;;;-3.96;66.94;101119.75;4967806;28;19966;-68
2023/02/06 06:19:44;;;;;;;;;;;;;;;-4.07;67.02;101110.06;4961543;28;20029;-67
2023/02/06 06:22:10;;;;;;;;;;;;;;;-4.09;67.18;101120.91;4967747;28;20393;-67
2023/02/06 06:24:36;;;;;;;;;;;;;;;-3.95;67.04;101118.75;4967005;28;19930;-67
2023/02/06 06:27:02;;;;;;;;;;;;;;;-3.96;66.72;101125.09;4960848;28;19936;-66
2023/02/06 06:29:28;;;;;;;;;;;;;;;-4.00;66.70;101119.19;4968398;28;20309;-66
2023/02/06 06:31:55;;;;;;;;;;;;;;;-3.97;66.59;101121.56;4966190;28;19934;-66
2023/02/06 06:34:22;;;;;;;;;;;;;;;-3.90;66.47;101117.31;4983988;28;20066;-66
2023/02/06 06:36:47;;;;;;;;;;;;;;;-3.82;66.30;101121.94;4967728;28;20425;-67
2023/02/06 06:39:13;;;;;;;;;;;;;;;-3.80;65.95;101125.28;4970390;28;19976;-66
2023/02/06 06:41:39;;;;;;;;;;;;;;;-3.83;65.90;101130.09;4969438;28;19973;-67
2023/02/06 06:44:04;;;;;;;;;;;;;;;-3.83;66.04;101130.09;4968811;28;19939;-67
2023/02/06 06:46:30;;;;;;;;;;;;;;;-3.85;65.90;101130.22;4966807;28;19981;-66
2023/02/06 06:48:56;;;;;;;;;;;;;;;-3.85;65.85;101133.75;4971422;28;20216;-66
2023/02/06 06:51:25;;;;;;;;;;;;;;;-3.86;66.11;101124.06;4967614;28;20404;-67
2023/02/06 06:53:51;;;;;;;;;;;;;;;-3.79;66.03;101134.16;4969330;28;19937;-67
2023/02/06 06:56:17;;;;;;;;;;;;;;;-3.85;66.13;101133.75;4968518;28;20349;-67
2023/02/06 06:58:42;;;;;;;;;;;;;;;-3.94;66.04;101136.47;4962576;28;19965;-66
2023/02/06 07:01:08;;;;;;;;;;;;;;;-3.91;66.05;101138.84;4948350;28;20350;-66
2023/02/06 07:03:35;;;;;;;;;;;;;;;-3.92;65.75;101135.31;4964520;28;20491;-67
2023/02/06 07:06:01;;;;;;;;;;;;;;;-3.88;65.59;101142.06;4967614;28;20262;-66
2023/02/06 07:08:28;;;;;;;;;;;;;;;-3.84;65.61;101139.94;4981680;28;20310;-67
2023/02/06 07:10:54;;;;;;;;;;;;;;;-3.83;65.53;101133.59;4965913;28;19936;-66
2023/02/06 07:13:20;;;;;;;;;;;;;;;-3.78;65.16;101134.00;4964799;28;20473;-67
2023/02/06 07:15:46;;;;;;;;;;;;;;;-3.76;64.89;101132.03;4969773;28;20346;-67
2023/02/06 07:18:12;;;;;;;;;;;;;;;-3.71;64.86;101127.06;4966597;28;19934;-66
2023/02/06 07:20:37;;;;;;;;;;;;;;;-3.63;64.59;101128.16;4968318;28;19940;-66
2023/02/06 07:23:03;;;;;;;;;;;;;;;-3.70;64.24;101130.59;4967580;28;19985;-67
2023/02/06 07:25:30;;;;;;;;;;;;;;;-3.66;64.22;101131.16;4968606;28;19930;-67
2023/02/06 07:27:56;;;;;;;;;;;;;;;-3.66;64.10;101131.16;4970989;28;19930;-67
2023/02/06 07:30:22;;;;;;;;;;;;;;;-3.59;63.92;101122.38;4968013;28;19940;-67
2023/02/06 07:32:47;;;;;;;;;;;;;;;-3.54;63.78;101127.25;4968914;28;19933;-67
2023/02/06 07:35:16;;;;;;;;;;;;;;;-3.51;63.32;101131.47;4968198;28;19991;-69
2023/02/06 07:37:42;;;;;;;;;;;;;;;-3.47;63.02;101127.50;4966411;28;19930;-66
2023/02/06 07:40:08;;;;;;;;;;;;;;;-3.48;62.87;101132.03;4961487;28;19984;-67
2023/02/06 07:42:35;;;;;;;;;;;;;;;-3.46;62.64;101142.56;4964056;28;20500;-67
2023/02/06 07:45:12;;;;;;;;;;;;;;;-3.42;62.58;101135.94;4964184;28;19941;-67
2023/02/06 07:47:38;;;;;;;;;;;;;;;-3.34;62.22;101135.19;4968527;28;19930;-66
2023/02/06 07:50:04;;;;;;;;;;;;;;;-3.29;61.76;101135.56;4967193;28;19934;-67
2023/02/06 07:52:29;;;;;;;;;;;;;;;-3.29;61.54;101138.25;4967221;28;19946;-67
2023/02/06 07:54:55;;;;;;;;;;;;;;;-3.22;61.30;101141.16;4969002;28;19930;-67
2023/02/06 07:57:21;;;;;;;;;;;;;;;-3.18;61.27;101140.72;4968328;28;19976;-67
2023/02/06 07:59:48;;;;;;;;;;;;;;;-3.14;60.92;101142.09;4987197;28;19930;-68
2023/02/06 08:02:14;;;;;;;;;;;;;;;-3.18;60.28;101139.88;4984735;28;19930;-67
2023/02/06 08:04:39;;;;;;;;;;;;;;;-3.25;60.51;101150.31;4984729;28;20032;-67
2023/02/06 08:07:05;;;;;;;;;;;;;;;-3.25;60.32;101154.84;4986770;28;20213;-67
2023/02/06 08:09:31;;;;;;;;;;;;;;;-3.29;60.53;101152.44;4985391;28;20135;-67
2023/02/06 08:11:57;;;;;;;;;;;;;;;-3.28;60.52;101151.50;4984977;28;20341;-67
2023/02/06 08:14:23;;;;;;;;;;;;;;;-3.21;60.51;101149.03;4981158;28;19929;-67
2023/02/06 08:16:50;;;;;;;;;;;;;;;-3.21;59.75;101153.56;4967641;28;20454;-67
2023/02/06 08:19:17;;;;;;;;;;;;;;;-3.26;60.06;101153.16;4982813;28;19934;-67
2023/02/06 08:21:42;;;;;;;;;;;;;;;-3.26;60.11;101137.94;4966700;28;19969;-68
2023/02/06 08:24:10;;;;;;;;;;;;;;;-3.17;60.09;101139.72;4967222;28;19980;-67
2023/02/06 08:26:36;;;;;;;;;;;;;;;-3.15;59.86;101134.19;4986338;28;20397;-67
2023/02/06 08:29:03;;;;;;;;;;;;;;;-3.24;59.81;101148.50;4967852;28;20416;-67
2023/02/06 08:31:30;;;;;;;;;;;;;;;-3.26;59.74;101143.28;4986263;28;20409;-67
2023/02/06 08:33:57;;;;;;;;;;;;;;;-3.25;59.79;101144.97;4986675;28;20379;-66
2023/02/06 08:36:23;;;;;;;;;;;;;;;-3.25;59.88;101139.63;4984553;28;19936;-67
2023/02/06 08:38:49;;;;;;;;;;;;;;;-3.27;60.15;101141.59;4983122;28;19930;-67
2023/02/06 08:41:17;;;;;;;;;;;;;;;-3.31;60.08;101138.38;4984006;28;20285;-66
2023/02/06 08:43:43;;;;;;;;;;;;;;;-3.29;60.38;101139.06;4954529;28;19962;-66
2023/02/06 08:46:08;;;;;;;;;;;;;;;-3.22;60.22;101144.66;4986092;28;19933;-66
2023/02/06 08:48:34;;;;;;;;;;;;;;;-3.13;59.87;101143.78;4987042;28;19961;-66
2023/02/06 08:51:03;;;;;;;;;;;;;;;-3.18;59.62;101139.88;4985866;28;19930;-67
2023/02/06 08:53:28;;;;;;;;;;;;;;;-3.21;59.88;101137.50;4983734;28;19930;-67
2023/02/06 08:55:56;;;;;;;;;;;;;;;-3.13;59.88;101130.38;4967963;28;19945;-67
2023/02/06 08:58:22;;;;;;;;;;;;;;;-3.08;59.69;101135.28;4966542;28;19941;-67
2023/02/06 09:00:47;;;;;;;;;;;;;;;-3.07;59.67;101141.47;4984865;28;19930;-67
2023/02/06 09:03:13;;;;;;;;;;;;;;;-3.01;59.69;101149.75;4988909;28;19940;-67
2023/02/06 09:05:39;;;;;;;;;;;;;;;-3.03;59.59;101148.22;4972649;28;20380;-67
2023/02/06 09:08:06;;;;;;;;;;;;;;;-2.97;59.60;101141.41;4988480;28;19929;-67
2023/02/06 09:10:32;;;;;;;;;;;;;;;-2.92;59.31;101133.78;4972610;28;20315;-67
2023/02/06 09:12:58;;;;;;;;;;;;;;;-2.91;59.32;101138.94;4969384;28;20021;-67
2023/02/06 09:15:23;;;;;;;;;;;;;;;-2.91;58.87;101141.63;4968256;28;20285;-67
2023/02/06 09:17:49;;;;;;;;;;;;;;;-2.92;59.05;101145.31;4988790;28;19984;-67
2023/02/06 09:20:15;;;;;;;;;;;;;;;-2.91;59.24;101148.84;4972579;28;19930;-67
2023/02/06 09:22:43;;;;;;;;;;;;;;;-2.94;59.33;101139.25;4971722;28;19992;-67
2023/02/06 09:25:10;;;;;;;;;;;;;;;-2.94;59.26;101144.63;4985227;28;20320;-67
2023/02/06 09:27:36;;;;;;;;;;;;;;;-2.90;59.15;101142.47;4989958;28;19977;-67
2023/02/06 09:30:02;;;;;;;;;;;;;;;-2.92;59.11;101145.31;4987828;28;19934;-67
2023/02/06 09:32:28;;;;;;;;;;;;;;;-3.00;59.29;101142.56;4974616;28;20385;-67
2023/02/06 09:34:54;;;;;;;;;;;;;;;-3.05;59.47;101142.16;4989511;28;19976;-67
2023/02/06 09:37:20;;;;;;;;;;;;;;;-3.10;59.56;101148.00;4971972;28;19934;-67
2023/02/06 09:39:46;;;;;;;;;;;;;;;-3.07;59.83;101145.00;4988397;28;19930;-67
2023/02/06 09:42:15;;;;;;;;;;;;;;;-3.04;59.64;101142.00;4973714;28;19995;-67
2023/02/06 09:44:43;;;;;;;;;;;;;;;-3.03;59.68;101142.88;4972664;28;19941;-67
2023/02/06 09:47:13;;;;;;;;;;;;;;;-3.01;59.42;101141.72;4970614;28;20316;-67
2023/02/06 09:49:42;;;;;;;;;;;;;;;-3.04;59.26;101135.84;4986770;28;19940;-67
2023/02/06 09:52:20;;;;;;;;;;;;;;;-3.07;59.59;101136.97;4990619;28;19984;-66
2023/02/06 09:54:52;;;;;;;;;;;;;;;-3.05;59.97;101134.13;4989496;28;19930;-67
2023/02/06 09:57:30;;;;;;;;;;;;;;;-3.00;59.64;101131.84;4970604;28;20401;-67
2023/02/06 09:59:58;;;;;;;;;;;;;;;-2.97;59.47;101141.41;4985832;28;19930;-66
2023/02/06 10:02:36;;;;;;;;;;;;;;;-2.91;59.58;101138.94;4987750;28;20344;-67
2023/02/06 10:05:06;;;;;;;;;;;;;;;-2.97;59.32;101144.06;4971569;28;19933;-67
2023/02/06 10:07:44;;;;;;;;;;;;;;;-3.05;59.87;101139.47;4975931;28;19990;-67
2023/02/06 10:10:13;;;;;;;;;;;;;;;-2.99;59.68;101145.06;4986286;28;20177;-66
2023/02/06 10:12:41;;;;;;;;;;;;;;;-3.00;59.53;101145.25;4990704;28;19937;-67
2023/02/06 10:15:10;;;;;;;;;;;;;;;-3.02;59.16;101139.19;4972008;28;19957;-67
2023/02/06 10:17:40;;;;;;;;;;;;;;;-3.09;59.13;101149.66;4970298;28;19936;-67
2023/02/06 10:20:10;;;;;;;;;;;;;;;-3.09;59.31;101149.66;4972754;28;19929;-67
2023/02/06 10:22:39;;;;;;;;;;;;;;;-3.10;59.64;101156.03;4989858;28;19936;-66
2023/02/06 10:25:15;;;;;;;;;;;;;;;-3.11;60.03;101158.84;4991208;28;19960;-67
2023/02/06 10:27:43;;;;;;;;;;;;;;;-3.05;60.06;101150.19;4990300;28;19930;-67
2023/02/06 10:30:11;;;;;;;;;;;;;;;-3.02;59.81;101158.75;4987655;28;19968;-67
2023/02/06 10:32:42;;;;;;;;;;;;;;;-2.98;59.65;101153.94;4988971;28;19937;-67
2023/02/06 10:35:13;;;;;;;;;;;;;;;-2.96;59.51;101149.28;4990332;28;19953;-68
2023/02/06 10:38:03;;;;;;;;;;;;;;;-2.91;59.29;101146.97;4974192;28;19965;-67
2023/02/06 10:40:34;;;;;;;;;;;;;;;-3.08;59.52;101151.34;4932366;28;19931;-67
2023/02/06 10:43:05;;;;;;;;;;;;;;;-3.20;59.76;101147.19;4986473;28;19930;-67
2023/02/06 10:45:35;;;;;;;;;;;;;;;-3.19;59.77;101152.41;4975909;28;19930;-67
2023/02/06 10:48:03;;;;;;;;;;;;;;;-3.13;59.91;101150.94;4985432;28;20451;-67
2023/02/06 10:50:31;;;;;;;;;;;;;;;-3.14;59.54;101152.78;4986967;28;19930;-67
2023/02/06 10:52:59;;;;;;;;;;;;;;;-3.15;60.02;101158.28;4986660;28;19936;-67
2023/02/06 10:55:26;;;;;;;;;;;;;;;-3.18;60.05;101151.41;4983995;28;19936;-67
2023/02/06 10:57:56;;;;;;;;;;;;;;;-3.17;60.13;101142.41;4986898;28;19937;-67
2023/02/06 11:00:25;;;;;;;;;;;;;;;-3.18;60.40;101143.41;4971294;28;19930;-67
2023/02/06 11:02:56;;;;;;;;;;;;;;;-3.19;60.13;101151.56;4990127;28;19936;-67
2023/02/06 11:05:23;;;;;;;;;;;;;;;-3.15;60.41;101145.75;4984122;28;19933;-67
2023/02/06 11:07:50;;;;;;;;;;;;;;;-3.16;60.63;101140.56;4987703;28;19930;-67
2023/02/06 11:10:17;;;;;;;;;;;;;;;-3.34;61.26;101149.41;4988387;28;19969;-67
2023/02/06 11:12:46;;;;;;;;;;;;;;;-3.47;61.87;101141.72;4985044;28;20502;-67
2023/02/06 11:15:20;;;;;;;;;;;;;;;-3.45;62.25;101146.91;4988067;28;20329;-67
2023/02/06 11:17:47;;;;;;;;;;;;;;;-3.40;62.72;101152.69;4985779;28;19937;-66
2023/02/06 11:20:20;;;;;;;;;;;;;;;-3.36;62.51;101142.50;4975044;28;20410;-67
2023/02/06 11:22:46;;;;;;;;;;;;;;;-3.42;62.66;101146.66;4987593;28;20404;-66
2023/02/06 11:25:20;;;;;;;;;;;;;;;-3.38;62.59;101142.66;4984272;28;19941;-67
2023/02/06 11:27:46;;;;;;;;;;;;;;;-3.38;62.62;101142.66;4984955;28;20032;-67
2023/02/06 11:30:22;;;;;;;;;;;;;;;-3.36;62.90;101142.50;4987839;28;20052;-67
2023/02/06 11:32:55;;;;;;;;;;;;;;;-3.40;62.83;101139.31;4965966;28;19933;-66
2023/02/06 11:35:23;;;;;;;;;;;;;;;-3.42;63.34;101136.78;4986596;28;19996;-67
2023/02/06 11:37:52;;;;;;;;;;;;;;;-3.40;63.28;101141.97;4987508;28;19930;-67
2023/02/06 11:40:26;;;;;;;;;;;;;;;-3.47;63.54;101140.88;4986700;28;19934;-67
2023/02/06 11:42:52;;;;;;;;;;;;;;;-3.51;63.62;101140.34;4984606;28;19933;-67
2023/02/06 11:45:23;;;;;;;;;;;;;;;-3.52;63.50;101141.31;4966956;28;19940;-67
2023/02/06 11:47:51;;;;;;;;;;;;;;;-3.51;63.52;101143.03;4970053;28;19936;-67
2023/02/06 11:50:22;;;;;;;;;;;;;;;-3.56;63.76;101146.16;4970675;28;19950;-67
2023/02/06 11:52:48;;;;;;;;;;;;;;;-3.60;63.63;101136.72;4987439;28;19930;-67
2023/02/06 11:55:21;;;;;;;;;;;;;;;-3.60;63.59;101135.88;4966523;28;19991;-67
2023/02/06 11:58:00;;;;;;;;;;;;;;;-3.63;63.51;101131.66;4985241;28;20426;-67
2023/02/06 12:00:25;;;;;;;;;;;;;;;-3.64;62.85;101130.00;4986494;28;20352;-67
2023/02/06 12:02:53;;;;;;;;;;;;;;;-3.67;62.85;101134.78;4983754;28;19929;-67
2023/02/06 12:05:20;;;;;;;;;;;;;;;-3.72;62.50;101132.56;4985310;28;19929;-67
2023/02/06 12:07:48;;;;;;;;;;;;;;;-3.70;62.52;101138.63;4986699;28;19936;-67
2023/02/06 12:10:15;;;;;;;;;;;;;;;-3.72;62.52;101137.94;4953323;28;19937;-67
2023/02/06 12:12:42;;;;;;;;;;;;;;;-3.75;63.00;101132.84;4985650;28;20468;-67
2023/02/06 12:15:11;;;;;;;;;;;;;;;-3.78;63.09;101141.16;4983908;28;19933;-67
2023/02/06 12:17:39;;;;;;;;;;;;;;;-3.85;63.38;101132.91;4986773;28;19929;-68
2023/02/06 12:20:20;;;;;;;;;;;;;;;-3.85;63.34;101133.75;4967797;28;19930;-67
2023/02/06 12:22:48;;;;;;;;;;;;;;;-3.79;63.61;101132.31;4983984;28;19929;-67
2023/02/06 12:25:25;;;;;;;;;;;;;;;-3.73;63.46;101136.25;4982784;28;19929;-67
2023/02/06 12:27:51;;;;;;;;;;;;;;;-3.73;63.34;101136.25;4984745;28;19929;-67
2023/02/06 12:30:25;;;;;;;;;;;;;;;-3.76;63.38;101134.69;4985145;28;19993;-67
2023/02/06 12:32:54;;;;;;;;;;;;;;;-3.76;63.30;101140.03;4967777;28;20491;-67
2023/02/06 12:35:27;;;;;;;;;;;;;;;-3.77;63.23;101130.34;4984076;28;20035;-67
2023/02/06 12:37:57;;;;;;;;;;;;;;;-3.89;63.00;101128.84;4967959;28;20003;-67